sensor_id;sensor_type;location;lat;lon;timestamp;P1;durP1;ratioP1;P2;durP2;ratioP2
13959;SDS011;7052;51.050;3.716;2022-12-19T00:01:51;16.33;;;10.37;;
13959;SDS011;7052;51.050;3.716;2022-12-19T00:04:20;15.77;;;10.30;;
13959;SDS011;7052;51.050;3.716;2022-12-19T00:06:48;12.60;;;9.50;;
13959;SDS011;7052;51.050;3.716;2022-12-19T00:09:16;15.00;;;10.10;;
13959;SDS011;7052;51.050;3.716;2022-12-19T00:11:46;15.23;;;9.67;;
13959;SDS011;7052;51.050;3.716;2022-12-19T00:14:18;15.30;;;9.27;;
13959;SDS011;7052;51.050;3.716;2022-12-19T00:16:48;14.77;;;9.70;;
13959;SDS011;7052;51.050;3.716;2022-12-19T00:19:14;14.20;;;9.80;;
13959;SDS011;7052;51.050;3.716;2022-12-19T00:21:42;15.97;;;10.30;;
13959;SDS011;7052;51.050;3.716;2022-12-19T00:24:10;14.73;;;9.07;;
13959;SDS011;7052;51.050;3.716;2022-12-19T00:26:37;14.03;;;9.47;;
13959;SDS011;7052;51.050;3.716;2022-12-19T00:29:05;15.07;;;9.97;;
13959;SDS011;7052;51.050;3.716;2022-12-19T00:31:37;15.07;;;10.30;;
13959;SDS011;7052;51.050;3.716;2022-12-19T00:34:06;14.47;;;9.97;;
13959;SDS011;7052;51.050;3.716;2022-12-19T00:36:34;15.90;;;10.37;;
13959;SDS011;7052;51.050;3.716;2022-12-19T00:39:01;13.53;;;9.87;;
13959;SDS011;7052;51.050;3.716;2022-12-19T00:41:29;15.90;;;9.53;;
13959;SDS011;7052;51.050;3.716;2022-12-19T00:44:00;12.80;;;8.60;;
13959;SDS011;7052;51.050;3.716;2022-12-19T00:46:29;12.93;;;9.17;;
13959;SDS011;7052;51.050;3.716;2022-12-19T00:48:58;15.27;;;8.83;;
13959;SDS011;7052;51.050;3.716;2022-12-19T00:51:26;11.27;;;7.60;;
13959;SDS011;7052;51.050;3.716;2022-12-19T00:53:55;12.40;;;8.43;;
13959;SDS011;7052;51.050;3.716;2022-12-19T00:56:23;10.40;;;6.50;;
13959;SDS011;7052;51.050;3.716;2022-12-19T00:58:53;13.33;;;8.10;;
13959;SDS011;7052;51.050;3.716;2022-12-19T01:01:21;9.67;;;7.23;;
13959;SDS011;7052;51.050;3.716;2022-12-19T01:03:51;8.77;;;6.43;;
13959;SDS011;7052;51.050;3.716;2022-12-19T01:06:20;10.07;;;7.00;;
13959;SDS011;7052;51.050;3.716;2022-12-19T01:08:48;10.70;;;6.83;;
13959;SDS011;7052;51.050;3.716;2022-12-19T01:11:15;9.30;;;6.80;;
13959;SDS011;7052;51.050;3.716;2022-12-19T01:13:43;11.30;;;7.30;;
13959;SDS011;7052;51.050;3.716;2022-12-19T01:16:10;8.20;;;6.07;;
13959;SDS011;7052;51.050;3.716;2022-12-19T01:18:38;10.20;;;7.23;;
13959;SDS011;7052;51.050;3.716;2022-12-19T01:21:06;8.43;;;6.87;;
13959;SDS011;7052;51.050;3.716;2022-12-19T01:23:38;8.30;;;6.80;;
13959;SDS011;7052;51.050;3.716;2022-12-19T01:26:05;10.17;;;6.97;;
13959;SDS011;7052;51.050;3.716;2022-12-19T01:28:32;11.40;;;7.57;;
13959;SDS011;7052;51.050;3.716;2022-12-19T01:30:59;8.23;;;5.47;;
13959;SDS011;7052;51.050;3.716;2022-12-19T01:33:26;10.03;;;7.27;;
13959;SDS011;7052;51.050;3.716;2022-12-19T01:35:54;7.93;;;6.23;;
13959;SDS011;7052;51.050;3.716;2022-12-19T01:38:25;9.83;;;7.17;;
13959;SDS011;7052;51.050;3.716;2022-12-19T01:40:58;10.27;;;7.63;;
13959;SDS011;7052;51.050;3.716;2022-12-19T01:43:26;14.63;;;9.43;;
13959;SDS011;7052;51.050;3.716;2022-12-19T01:45:56;9.90;;;7.40;;
13959;SDS011;7052;51.050;3.716;2022-12-19T01:48:29;10.80;;;7.63;;
13959;SDS011;7052;51.050;3.716;2022-12-19T01:51:00;8.73;;;6.80;;
13959;SDS011;7052;51.050;3.716;2022-12-19T01:53:30;10.90;;;8.33;;
13959;SDS011;7052;51.050;3.716;2022-12-19T01:56:04;11.67;;;7.97;;
13959;SDS011;7052;51.050;3.716;2022-12-19T01:58:35;10.77;;;7.77;;
13959;SDS011;7052;51.050;3.716;2022-12-19T02:01:05;14.10;;;9.57;;
13959;SDS011;7052;51.050;3.716;2022-12-19T02:03:34;7.90;;;6.57;;
13959;SDS011;7052;51.050;3.716;2022-12-19T02:06:05;13.50;;;8.80;;
13959;SDS011;7052;51.050;3.716;2022-12-19T02:08:33;10.83;;;8.67;;
13959;SDS011;7052;51.050;3.716;2022-12-19T02:11:03;11.33;;;7.37;;
13959;SDS011;7052;51.050;3.716;2022-12-19T02:13:32;9.83;;;8.20;;
13959;SDS011;7052;51.050;3.716;2022-12-19T02:16:01;9.67;;;7.97;;
13959;SDS011;7052;51.050;3.716;2022-12-19T02:18:39;10.53;;;7.77;;
13959;SDS011;7052;51.050;3.716;2022-12-19T02:21:19;9.93;;;7.60;;
13959;SDS011;7052;51.050;3.716;2022-12-19T02:23:57;10.33;;;7.77;;
13959;SDS011;7052;51.050;3.716;2022-12-19T02:27:03;9.80;;;7.30;;
13959;SDS011;7052;51.050;3.716;2022-12-19T02:29:48;9.40;;;6.90;;
13959;SDS011;7052;51.050;3.716;2022-12-19T02:32:39;9.67;;;7.40;;
13959;SDS011;7052;51.050;3.716;2022-12-19T02:35:18;11.97;;;8.30;;
13959;SDS011;7052;51.050;3.716;2022-12-19T02:37:54;9.10;;;7.70;;
13959;SDS011;7052;51.050;3.716;2022-12-19T02:40:28;9.10;;;7.20;;
13959;SDS011;7052;51.050;3.716;2022-12-19T02:42:59;10.30;;;7.23;;
13959;SDS011;7052;51.050;3.716;2022-12-19T02:45:29;9.10;;;7.57;;
13959;SDS011;7052;51.050;3.716;2022-12-19T02:48:04;9.53;;;7.90;;
13959;SDS011;7052;51.050;3.716;2022-12-19T02:50:35;11.07;;;8.57;;
13959;SDS011;7052;51.050;3.716;2022-12-19T02:53:04;9.53;;;7.67;;
13959;SDS011;7052;51.050;3.716;2022-12-19T02:55:37;8.90;;;6.80;;
13959;SDS011;7052;51.050;3.716;2022-12-19T02:58:13;8.93;;;6.97;;
13959;SDS011;7052;51.050;3.716;2022-12-19T03:01:01;8.97;;;6.87;;
13959;SDS011;7052;51.050;3.716;2022-12-19T03:03:39;9.40;;;6.73;;
13959;SDS011;7052;51.050;3.716;2022-12-19T03:06:16;10.10;;;7.77;;
13959;SDS011;7052;51.050;3.716;2022-12-19T03:08:58;10.33;;;6.83;;
13959;SDS011;7052;51.050;3.716;2022-12-19T03:11:31;9.23;;;7.37;;
13959;SDS011;7052;51.050;3.716;2022-12-19T03:14:05;9.03;;;7.27;;
13959;SDS011;7052;51.050;3.716;2022-12-19T03:16:37;10.13;;;7.90;;
13959;SDS011;7052;51.050;3.716;2022-12-19T03:19:07;10.63;;;7.90;;
13959;SDS011;7052;51.050;3.716;2022-12-19T03:21:39;8.67;;;7.73;;
13959;SDS011;7052;51.050;3.716;2022-12-19T03:24:09;9.17;;;7.87;;
13959;SDS011;7052;51.050;3.716;2022-12-19T03:26:43;9.57;;;7.77;;
13959;SDS011;7052;51.050;3.716;2022-12-19T03:29:13;10.63;;;7.50;;
13959;SDS011;7052;51.050;3.716;2022-12-19T03:31:46;9.07;;;6.83;;
13959;SDS011;7052;51.050;3.716;2022-12-19T03:34:17;8.87;;;7.47;;
13959;SDS011;7052;51.050;3.716;2022-12-19T03:36:51;10.10;;;7.90;;
13959;SDS011;7052;51.050;3.716;2022-12-19T03:39:21;11.57;;;8.47;;
13959;SDS011;7052;51.050;3.716;2022-12-19T03:41:50;10.13;;;7.67;;
13959;SDS011;7052;51.050;3.716;2022-12-19T03:44:38;9.57;;;8.00;;
13959;SDS011;7052;51.050;3.716;2022-12-19T03:47:09;10.07;;;7.53;;
13959;SDS011;7052;51.050;3.716;2022-12-19T03:49:44;9.23;;;7.10;;
13959;SDS011;7052;51.050;3.716;2022-12-19T03:52:15;8.93;;;7.33;;
13959;SDS011;7052;51.050;3.716;2022-12-19T03:54:57;10.33;;;7.33;;
13959;SDS011;7052;51.050;3.716;2022-12-19T03:57:32;8.27;;;6.80;;
13959;SDS011;7052;51.050;3.716;2022-12-19T04:00:05;9.43;;;7.07;;
13959;SDS011;7052;51.050;3.716;2022-12-19T04:02:37;9.07;;;7.53;;
13959;SDS011;7052;51.050;3.716;2022-12-19T04:05:09;10.27;;;6.90;;
13959;SDS011;7052;51.050;3.716;2022-12-19T04:07:40;10.50;;;7.50;;
13959;SDS011;7052;51.050;3.716;2022-12-19T04:10:10;7.20;;;5.40;;
13959;SDS011;7052;51.050;3.716;2022-12-19T04:12:40;9.03;;;7.13;;
13959;SDS011;7052;51.050;3.716;2022-12-19T04:15:12;7.73;;;6.43;;
13959;SDS011;7052;51.050;3.716;2022-12-19T04:17:42;8.63;;;6.53;;
13959;SDS011;7052;51.050;3.716;2022-12-19T04:20:15;9.87;;;7.40;;
13959;SDS011;7052;51.050;3.716;2022-12-19T04:22:46;9.77;;;7.77;;
13959;SDS011;7052;51.050;3.716;2022-12-19T04:25:18;7.93;;;6.40;;
13959;SDS011;7052;51.050;3.716;2022-12-19T04:27:52;7.70;;;6.63;;
13959;SDS011;7052;51.050;3.716;2022-12-19T04:30:24;10.17;;;7.03;;
13959;SDS011;7052;51.050;3.716;2022-12-19T04:32:52;10.70;;;7.37;;
13959;SDS011;7052;51.050;3.716;2022-12-19T04:35:27;9.33;;;6.90;;
13959;SDS011;7052;51.050;3.716;2022-12-19T04:37:54;8.73;;;6.63;;
13959;SDS011;7052;51.050;3.716;2022-12-19T04:40:22;8.27;;;6.00;;
13959;SDS011;7052;51.050;3.716;2022-12-19T04:42:53;8.30;;;6.77;;
13959;SDS011;7052;51.050;3.716;2022-12-19T04:45:19;9.10;;;6.87;;
13959;SDS011;7052;51.050;3.716;2022-12-19T04:47:49;8.23;;;6.90;;
13959;SDS011;7052;51.050;3.716;2022-12-19T04:50:16;9.10;;;6.53;;
13959;SDS011;7052;51.050;3.716;2022-12-19T04:52:44;10.67;;;7.17;;
13959;SDS011;7052;51.050;3.716;2022-12-19T04:55:12;8.00;;;6.50;;
13959;SDS011;7052;51.050;3.716;2022-12-19T04:57:40;9.83;;;7.27;;
13959;SDS011;7052;51.050;3.716;2022-12-19T05:00:08;9.40;;;7.53;;
13959;SDS011;7052;51.050;3.716;2022-12-19T05:02:37;8.53;;;6.50;;
13959;SDS011;7052;51.050;3.716;2022-12-19T05:05:04;7.33;;;6.50;;
13959;SDS011;7052;51.050;3.716;2022-12-19T05:07:34;7.90;;;7.07;;
13959;SDS011;7052;51.050;3.716;2022-12-19T05:10:02;8.23;;;6.57;;
13959;SDS011;7052;51.050;3.716;2022-12-19T05:12:31;9.30;;;6.93;;
13959;SDS011;7052;51.050;3.716;2022-12-19T05:14:58;8.97;;;7.40;;
13959;SDS011;7052;51.050;3.716;2022-12-19T05:17:30;8.23;;;7.30;;
13959;SDS011;7052;51.050;3.716;2022-12-19T05:19:59;8.83;;;6.97;;
13959;SDS011;7052;51.050;3.716;2022-12-19T05:22:26;8.57;;;7.23;;
13959;SDS011;7052;51.050;3.716;2022-12-19T05:24:53;8.83;;;6.53;;
13959;SDS011;7052;51.050;3.716;2022-12-19T05:27:22;9.70;;;7.10;;
13959;SDS011;7052;51.050;3.716;2022-12-19T05:29:49;7.73;;;6.50;;
13959;SDS011;7052;51.050;3.716;2022-12-19T05:32:16;8.10;;;6.83;;
13959;SDS011;7052;51.050;3.716;2022-12-19T05:34:43;7.50;;;6.60;;
13959;SDS011;7052;51.050;3.716;2022-12-19T05:37:10;7.77;;;6.33;;
13959;SDS011;7052;51.050;3.716;2022-12-19T05:39:37;8.97;;;6.60;;
13959;SDS011;7052;51.050;3.716;2022-12-19T05:42:07;9.00;;;7.00;;
13959;SDS011;7052;51.050;3.716;2022-12-19T05:44:35;8.60;;;6.33;;
13959;SDS011;7052;51.050;3.716;2022-12-19T05:47:03;9.93;;;5.77;;
13959;SDS011;7052;51.050;3.716;2022-12-19T05:49:31;7.53;;;6.23;;
13959;SDS011;7052;51.050;3.716;2022-12-19T05:51:58;7.53;;;5.90;;
13959;SDS011;7052;51.050;3.716;2022-12-19T05:54:25;8.13;;;6.87;;
13959;SDS011;7052;51.050;3.716;2022-12-19T05:56:53;7.80;;;6.20;;
13959;SDS011;7052;51.050;3.716;2022-12-19T05:59:20;8.27;;;7.20;;
13959;SDS011;7052;51.050;3.716;2022-12-19T06:01:49;6.53;;;5.77;;
13959;SDS011;7052;51.050;3.716;2022-12-19T06:04:16;7.47;;;5.87;;
13959;SDS011;7052;51.050;3.716;2022-12-19T06:06:45;7.72;;;6.95;;
13959;SDS011;7052;51.050;3.716;2022-12-19T06:09:14;7.27;;;6.13;;
13959;SDS011;7052;51.050;3.716;2022-12-19T06:11:41;6.93;;;6.07;;
13959;SDS011;7052;51.050;3.716;2022-12-19T06:14:10;6.87;;;5.13;;
13959;SDS011;7052;51.050;3.716;2022-12-19T06:16:40;8.57;;;6.20;;
13959;SDS011;7052;51.050;3.716;2022-12-19T06:19:09;9.50;;;5.23;;
13959;SDS011;7052;51.050;3.716;2022-12-19T06:21:36;5.83;;;5.23;;
13959;SDS011;7052;51.050;3.716;2022-12-19T06:24:03;6.57;;;5.33;;
13959;SDS011;7052;51.050;3.716;2022-12-19T06:26:31;8.20;;;5.53;;
13959;SDS011;7052;51.050;3.716;2022-12-19T06:28:58;5.47;;;4.93;;
13959;SDS011;7052;51.050;3.716;2022-12-19T06:31:25;7.13;;;4.77;;
13959;SDS011;7052;51.050;3.716;2022-12-19T06:33:53;6.30;;;4.90;;
13959;SDS011;7052;51.050;3.716;2022-12-19T06:36:22;6.60;;;5.47;;
13959;SDS011;7052;51.050;3.716;2022-12-19T06:38:52;8.80;;;5.60;;
13959;SDS011;7052;51.050;3.716;2022-12-19T06:41:22;6.23;;;5.30;;
13959;SDS011;7052;51.050;3.716;2022-12-19T06:44:09;7.40;;;5.43;;
13959;SDS011;7052;51.050;3.716;2022-12-19T06:46:38;9.47;;;5.53;;
13959;SDS011;7052;51.050;3.716;2022-12-19T06:49:09;6.60;;;5.23;;
13959;SDS011;7052;51.050;3.716;2022-12-19T06:51:38;6.33;;;5.33;;
13959;SDS011;7052;51.050;3.716;2022-12-19T06:54:08;7.47;;;6.20;;
13959;SDS011;7052;51.050;3.716;2022-12-19T06:56:35;6.63;;;5.27;;
13959;SDS011;7052;51.050;3.716;2022-12-19T06:59:03;8.33;;;5.13;;
13959;SDS011;7052;51.050;3.716;2022-12-19T07:01:33;6.23;;;5.43;;
13959;SDS011;7052;51.050;3.716;2022-12-19T07:04:11;5.30;;;4.37;;
13959;SDS011;7052;51.050;3.716;2022-12-19T07:06:45;5.77;;;4.50;;
13959;SDS011;7052;51.050;3.716;2022-12-19T07:09:12;6.50;;;4.30;;
13959;SDS011;7052;51.050;3.716;2022-12-19T07:11:40;6.13;;;4.93;;
13959;SDS011;7052;51.050;3.716;2022-12-19T07:14:07;6.23;;;4.97;;
13959;SDS011;7052;51.050;3.716;2022-12-19T07:16:34;6.17;;;4.90;;
13959;SDS011;7052;51.050;3.716;2022-12-19T07:19:01;7.10;;;5.30;;
13959;SDS011;7052;51.050;3.716;2022-12-19T07:21:29;5.93;;;5.13;;
13959;SDS011;7052;51.050;3.716;2022-12-19T07:23:58;8.17;;;5.57;;
13959;SDS011;7052;51.050;3.716;2022-12-19T07:26:26;5.77;;;5.10;;
13959;SDS011;7052;51.050;3.716;2022-12-19T07:28:53;6.03;;;4.87;;
13959;SDS011;7052;51.050;3.716;2022-12-19T07:31:20;7.83;;;5.20;;
13959;SDS011;7052;51.050;3.716;2022-12-19T07:33:47;4.87;;;4.37;;
13959;SDS011;7052;51.050;3.716;2022-12-19T07:36:14;7.20;;;5.03;;
13959;SDS011;7052;51.050;3.716;2022-12-19T07:38:41;6.40;;;4.73;;
13959;SDS011;7052;51.050;3.716;2022-12-19T07:41:12;5.37;;;4.87;;
13959;SDS011;7052;51.050;3.716;2022-12-19T07:43:39;5.43;;;4.53;;
13959;SDS011;7052;51.050;3.716;2022-12-19T07:46:06;6.37;;;4.10;;
13959;SDS011;7052;51.050;3.716;2022-12-19T07:48:33;6.00;;;4.37;;
13959;SDS011;7052;51.050;3.716;2022-12-19T07:51:01;4.03;;;3.50;;
13959;SDS011;7052;51.050;3.716;2022-12-19T07:53:29;8.97;;;4.97;;
13959;SDS011;7052;51.050;3.716;2022-12-19T07:55:56;5.60;;;4.80;;
13959;SDS011;7052;51.050;3.716;2022-12-19T07:58:25;5.17;;;3.73;;
13959;SDS011;7052;51.050;3.716;2022-12-19T08:00:54;5.82;;;5.22;;
13959;SDS011;7052;51.050;3.716;2022-12-19T08:03:22;5.40;;;4.63;;
13959;SDS011;7052;51.050;3.716;2022-12-19T08:05:49;6.10;;;4.93;;
13959;SDS011;7052;51.050;3.716;2022-12-19T08:08:17;5.30;;;4.23;;
13959;SDS011;7052;51.050;3.716;2022-12-19T08:10:44;6.70;;;5.00;;
13959;SDS011;7052;51.050;3.716;2022-12-19T08:13:13;4.90;;;4.20;;
13959;SDS011;7052;51.050;3.716;2022-12-19T08:15:42;5.67;;;3.67;;
13959;SDS011;7052;51.050;3.716;2022-12-19T08:18:10;4.83;;;4.33;;
13959;SDS011;7052;51.050;3.716;2022-12-19T08:20:38;4.90;;;4.07;;
13959;SDS011;7052;51.050;3.716;2022-12-19T08:23:09;6.53;;;4.40;;
13959;SDS011;7052;51.050;3.716;2022-12-19T08:25:38;5.63;;;4.37;;
13959;SDS011;7052;51.050;3.716;2022-12-19T08:28:05;6.50;;;3.70;;
13959;SDS011;7052;51.050;3.716;2022-12-19T08:30:33;5.00;;;4.27;;
13959;SDS011;7052;51.050;3.716;2022-12-19T08:33:01;5.87;;;4.43;;
13959;SDS011;7052;51.050;3.716;2022-12-19T08:35:29;5.13;;;4.47;;
13959;SDS011;7052;51.050;3.716;2022-12-19T08:37:56;4.67;;;4.03;;
13959;SDS011;7052;51.050;3.716;2022-12-19T08:40:23;5.33;;;4.20;;
13959;SDS011;7052;51.050;3.716;2022-12-19T08:42:51;5.10;;;4.60;;
13959;SDS011;7052;51.050;3.716;2022-12-19T08:45:19;5.90;;;4.40;;
13959;SDS011;7052;51.050;3.716;2022-12-19T08:47:46;5.30;;;3.93;;
13959;SDS011;7052;51.050;3.716;2022-12-19T08:50:15;4.77;;;4.00;;
13959;SDS011;7052;51.050;3.716;2022-12-19T08:52:43;4.67;;;3.90;;
13959;SDS011;7052;51.050;3.716;2022-12-19T08:55:13;5.03;;;4.30;;
13959;SDS011;7052;51.050;3.716;2022-12-19T08:57:42;4.30;;;3.90;;
13959;SDS011;7052;51.050;3.716;2022-12-19T09:00:10;5.87;;;4.07;;
13959;SDS011;7052;51.050;3.716;2022-12-19T09:02:38;4.97;;;4.03;;
13959;SDS011;7052;51.050;3.716;2022-12-19T09:05:05;5.07;;;3.57;;
13959;SDS011;7052;51.050;3.716;2022-12-19T09:07:35;4.63;;;4.13;;
13959;SDS011;7052;51.050;3.716;2022-12-19T09:10:03;4.43;;;3.63;;
13959;SDS011;7052;51.050;3.716;2022-12-19T09:12:31;5.67;;;4.20;;
13959;SDS011;7052;51.050;3.716;2022-12-19T09:14:59;5.07;;;3.90;;
13959;SDS011;7052;51.050;3.716;2022-12-19T09:17:26;4.23;;;3.70;;
13959;SDS011;7052;51.050;3.716;2022-12-19T09:19:55;4.37;;;3.63;;
13959;SDS011;7052;51.050;3.716;2022-12-19T09:22:29;5.83;;;3.80;;
13959;SDS011;7052;51.050;3.716;2022-12-19T09:24:58;5.17;;;3.97;;
13959;SDS011;7052;51.050;3.716;2022-12-19T09:27:25;5.17;;;4.33;;
13959;SDS011;7052;51.050;3.716;2022-12-19T09:29:53;5.23;;;4.10;;
13959;SDS011;7052;51.050;3.716;2022-12-19T09:32:20;4.73;;;3.73;;
13959;SDS011;7052;51.050;3.716;2022-12-19T09:34:47;5.07;;;4.17;;
13959;SDS011;7052;51.050;3.716;2022-12-19T09:37:14;4.93;;;3.80;;
13959;SDS011;7052;51.050;3.716;2022-12-19T09:39:41;6.93;;;4.20;;
13959;SDS011;7052;51.050;3.716;2022-12-19T09:42:26;6.07;;;4.90;;
13959;SDS011;7052;51.050;3.716;2022-12-19T09:45:09;7.07;;;4.47;;
13959;SDS011;7052;51.050;3.716;2022-12-19T09:47:45;5.77;;;3.67;;
13959;SDS011;7052;51.050;3.716;2022-12-19T09:50:18;6.20;;;4.50;;
13959;SDS011;7052;51.050;3.716;2022-12-19T09:52:57;6.13;;;4.27;;
13959;SDS011;7052;51.050;3.716;2022-12-19T09:55:30;5.17;;;4.50;;
13959;SDS011;7052;51.050;3.716;2022-12-19T09:58:04;5.53;;;4.23;;
13959;SDS011;7052;51.050;3.716;2022-12-19T10:00:39;5.10;;;4.00;;
13959;SDS011;7052;51.050;3.716;2022-12-19T10:03:13;5.17;;;4.20;;
13959;SDS011;7052;51.050;3.716;2022-12-19T10:05:47;4.60;;;4.20;;
13959;SDS011;7052;51.050;3.716;2022-12-19T10:08:24;4.77;;;4.20;;
13959;SDS011;7052;51.050;3.716;2022-12-19T10:10:59;5.87;;;4.17;;
13959;SDS011;7052;51.050;3.716;2022-12-19T10:13:38;5.17;;;3.93;;
13959;SDS011;7052;51.050;3.716;2022-12-19T10:16:15;6.70;;;4.00;;
13959;SDS011;7052;51.050;3.716;2022-12-19T10:18:48;5.43;;;4.20;;
13959;SDS011;7052;51.050;3.716;2022-12-19T10:21:27;4.77;;;4.27;;
13959;SDS011;7052;51.050;3.716;2022-12-19T10:24:01;5.40;;;4.00;;
13959;SDS011;7052;51.050;3.716;2022-12-19T10:26:48;5.70;;;4.10;;
13959;SDS011;7052;51.050;3.716;2022-12-19T10:29:37;4.67;;;3.80;;
13959;SDS011;7052;51.050;3.716;2022-12-19T10:32:20;5.87;;;4.23;;
13959;SDS011;7052;51.050;3.716;2022-12-19T10:34:52;4.77;;;4.27;;
13959;SDS011;7052;51.050;3.716;2022-12-19T10:37:22;6.67;;;4.03;;
13959;SDS011;7052;51.050;3.716;2022-12-19T10:39:56;5.47;;;3.90;;
13959;SDS011;7052;51.050;3.716;2022-12-19T10:42:43;4.87;;;3.73;;
13959;SDS011;7052;51.050;3.716;2022-12-19T10:45:18;4.60;;;3.90;;
13959;SDS011;7052;51.050;3.716;2022-12-19T10:47:50;4.30;;;3.90;;
13959;SDS011;7052;51.050;3.716;2022-12-19T10:50:26;6.70;;;3.87;;
13959;SDS011;7052;51.050;3.716;2022-12-19T10:52:55;5.27;;;4.10;;
13959;SDS011;7052;51.050;3.716;2022-12-19T10:55:45;4.30;;;3.90;;
13959;SDS011;7052;51.050;3.716;2022-12-19T10:58:18;5.23;;;4.00;;
13959;SDS011;7052;51.050;3.716;2022-12-19T11:00:57;4.97;;;4.10;;
13959;SDS011;7052;51.050;3.716;2022-12-19T11:03:30;4.80;;;3.60;;
13959;SDS011;7052;51.050;3.716;2022-12-19T11:05:59;5.53;;;3.47;;
13959;SDS011;7052;51.050;3.716;2022-12-19T11:09:11;4.03;;;3.57;;
13959;SDS011;7052;51.050;3.716;2022-12-19T11:11:56;7.23;;;3.87;;
13959;SDS011;7052;51.050;3.716;2022-12-19T11:14:28;5.47;;;3.90;;
13959;SDS011;7052;51.050;3.716;2022-12-19T11:16:59;5.27;;;3.80;;
13959;SDS011;7052;51.050;3.716;2022-12-19T11:19:28;5.07;;;3.73;;
13959;SDS011;7052;51.050;3.716;2022-12-19T11:21:58;5.10;;;3.70;;
13959;SDS011;7052;51.050;3.716;2022-12-19T11:24:29;4.30;;;3.40;;
13959;SDS011;7052;51.050;3.716;2022-12-19T11:27:08;4.80;;;3.50;;
13959;SDS011;7052;51.050;3.716;2022-12-19T11:29:57;4.00;;;3.33;;
13959;SDS011;7052;51.050;3.716;2022-12-19T11:32:31;5.27;;;3.67;;
13959;SDS011;7052;51.050;3.716;2022-12-19T11:35:01;4.03;;;3.67;;
13959;SDS011;7052;51.050;3.716;2022-12-19T11:37:32;5.00;;;3.50;;
13959;SDS011;7052;51.050;3.716;2022-12-19T11:40:05;4.33;;;3.47;;
13959;SDS011;7052;51.050;3.716;2022-12-19T11:42:50;5.27;;;3.80;;
13959;SDS011;7052;51.050;3.716;2022-12-19T11:45:23;4.07;;;3.30;;
13959;SDS011;7052;51.050;3.716;2022-12-19T11:48:05;3.73;;;3.17;;
13959;SDS011;7052;51.050;3.716;2022-12-19T11:50:42;3.70;;;3.40;;
13959;SDS011;7052;51.050;3.716;2022-12-19T11:53:19;4.47;;;3.67;;
13959;SDS011;7052;51.050;3.716;2022-12-19T11:55:51;4.40;;;3.70;;
13959;SDS011;7052;51.050;3.716;2022-12-19T11:58:22;6.17;;;3.57;;
13959;SDS011;7052;51.050;3.716;2022-12-19T12:00:54;4.07;;;3.40;;
13959;SDS011;7052;51.050;3.716;2022-12-19T12:03:37;5.30;;;3.50;;
13959;SDS011;7052;51.050;3.716;2022-12-19T12:06:21;4.73;;;3.53;;
13959;SDS011;7052;51.050;3.716;2022-12-19T12:08:57;8.90;;;5.43;;
13959;SDS011;7052;51.050;3.716;2022-12-19T12:11:32;3.40;;;3.10;;
13959;SDS011;7052;51.050;3.716;2022-12-19T12:14:14;6.60;;;3.40;;
13959;SDS011;7052;51.050;3.716;2022-12-19T12:20:07;4.37;;;3.43;;
13959;SDS011;7052;51.050;3.716;2022-12-19T12:22:48;3.70;;;3.27;;
13959;SDS011;7052;51.050;3.716;2022-12-19T12:25:29;5.00;;;3.63;;
13959;SDS011;7052;51.050;3.716;2022-12-19T12:28:11;3.97;;;3.20;;
13959;SDS011;7052;51.050;3.716;2022-12-19T12:31:22;4.80;;;3.20;;
13959;SDS011;7052;51.050;3.716;2022-12-19T12:34:07;5.13;;;3.33;;
13959;SDS011;7052;51.050;3.716;2022-12-19T12:36:59;5.10;;;4.10;;
13959;SDS011;7052;51.050;3.716;2022-12-19T12:39:36;4.07;;;3.27;;
13959;SDS011;7052;51.050;3.716;2022-12-19T12:42:15;3.73;;;3.17;;
13959;SDS011;7052;51.050;3.716;2022-12-19T12:44:49;3.30;;;2.93;;
13959;SDS011;7052;51.050;3.716;2022-12-19T12:47:21;5.57;;;3.33;;
13959;SDS011;7052;51.050;3.716;2022-12-19T12:49:55;3.63;;;3.13;;
13959;SDS011;7052;51.050;3.716;2022-12-19T12:52:31;4.20;;;3.20;;
13959;SDS011;7052;51.050;3.716;2022-12-19T12:55:00;3.43;;;2.60;;
13959;SDS011;7052;51.050;3.716;2022-12-19T12:57:32;6.50;;;3.93;;
13959;SDS011;7052;51.050;3.716;2022-12-19T13:00:15;5.37;;;3.30;;
13959;SDS011;7052;51.050;3.716;2022-12-19T13:02:45;3.47;;;3.00;;
13959;SDS011;7052;51.050;3.716;2022-12-19T13:05:22;3.00;;;2.70;;
13959;SDS011;7052;51.050;3.716;2022-12-19T13:11:13;3.70;;;2.97;;
13959;SDS011;7052;51.050;3.716;2022-12-19T13:17:11;3.10;;;2.80;;
13959;SDS011;7052;51.050;3.716;2022-12-19T13:23:03;4.83;;;3.20;;
13959;SDS011;7052;51.050;3.716;2022-12-19T13:25:48;5.07;;;3.30;;
13959;SDS011;7052;51.050;3.716;2022-12-19T13:31:13;6.17;;;3.30;;
13959;SDS011;7052;51.050;3.716;2022-12-19T13:36:43;4.60;;;2.90;;
13959;SDS011;7052;51.050;3.716;2022-12-19T13:39:41;5.27;;;3.47;;
13959;SDS011;7052;51.050;3.716;2022-12-19T13:42:25;4.53;;;3.20;;
13959;SDS011;7052;51.050;3.716;2022-12-19T13:45:14;4.80;;;3.30;;
13959;SDS011;7052;51.050;3.716;2022-12-19T13:47:48;4.80;;;3.00;;
13959;SDS011;7052;51.050;3.716;2022-12-19T13:50:18;4.40;;;3.90;;
13959;SDS011;7052;51.050;3.716;2022-12-19T13:52:49;5.13;;;3.77;;
13959;SDS011;7052;51.050;3.716;2022-12-19T13:55:18;5.27;;;3.30;;
13959;SDS011;7052;51.050;3.716;2022-12-19T13:57:48;3.63;;;3.07;;
13959;SDS011;7052;51.050;3.716;2022-12-19T14:00:19;4.27;;;3.30;;
13959;SDS011;7052;51.050;3.716;2022-12-19T14:02:48;7.43;;;3.47;;
13959;SDS011;7052;51.050;3.716;2022-12-19T14:05:19;3.97;;;3.50;;
13959;SDS011;7052;51.050;3.716;2022-12-19T14:07:50;3.30;;;3.00;;
13959;SDS011;7052;51.050;3.716;2022-12-19T14:10:20;4.60;;;3.37;;
13959;SDS011;7052;51.050;3.716;2022-12-19T14:12:50;5.23;;;3.60;;
13959;SDS011;7052;51.050;3.716;2022-12-19T14:15:36;5.67;;;4.00;;
13959;SDS011;7052;51.050;3.716;2022-12-19T14:18:11;4.80;;;3.40;;
13959;SDS011;7052;51.050;3.716;2022-12-19T14:20:44;4.47;;;2.90;;
13959;SDS011;7052;51.050;3.716;2022-12-19T14:23:12;5.00;;;3.20;;
13959;SDS011;7052;51.050;3.716;2022-12-19T14:25:43;3.37;;;2.90;;
13959;SDS011;7052;51.050;3.716;2022-12-19T14:28:15;4.97;;;3.53;;
13959;SDS011;7052;51.050;3.716;2022-12-19T14:30:52;6.90;;;3.50;;
13959;SDS011;7052;51.050;3.716;2022-12-19T14:33:29;5.67;;;3.50;;
13959;SDS011;7052;51.050;3.716;2022-12-19T14:35:58;3.47;;;2.90;;
13959;SDS011;7052;51.050;3.716;2022-12-19T14:38:28;3.40;;;3.10;;
13959;SDS011;7052;51.050;3.716;2022-12-19T14:41:04;4.63;;;3.30;;
13959;SDS011;7052;51.050;3.716;2022-12-19T14:43:52;4.70;;;3.27;;
13959;SDS011;7052;51.050;3.716;2022-12-19T14:46:24;3.80;;;3.20;;
13959;SDS011;7052;51.050;3.716;2022-12-19T14:48:54;5.33;;;3.30;;
13959;SDS011;7052;51.050;3.716;2022-12-19T14:51:30;5.10;;;3.23;;
13959;SDS011;7052;51.050;3.716;2022-12-19T14:54:04;4.67;;;3.20;;
13959;SDS011;7052;51.050;3.716;2022-12-19T14:56:46;4.73;;;3.40;;
13959;SDS011;7052;51.050;3.716;2022-12-19T14:59:26;5.03;;;3.60;;
13959;SDS011;7052;51.050;3.716;2022-12-19T15:01:59;5.53;;;3.53;;
13959;SDS011;7052;51.050;3.716;2022-12-19T15:04:29;4.97;;;3.20;;
13959;SDS011;7052;51.050;3.716;2022-12-19T15:07:03;4.33;;;3.37;;
13959;SDS011;7052;51.050;3.716;2022-12-19T15:09:50;4.13;;;3.20;;
13959;SDS011;7052;51.050;3.716;2022-12-19T15:12:24;5.00;;;3.13;;
13959;SDS011;7052;51.050;3.716;2022-12-19T15:15:19;5.50;;;3.90;;
13959;SDS011;7052;51.050;3.716;2022-12-19T15:17:56;5.23;;;3.20;;
13959;SDS011;7052;51.050;3.716;2022-12-19T15:20:23;6.53;;;3.73;;
13959;SDS011;7052;51.050;3.716;2022-12-19T15:22:52;3.60;;;3.17;;
13959;SDS011;7052;51.050;3.716;2022-12-19T15:25:24;3.80;;;3.00;;
13959;SDS011;7052;51.050;3.716;2022-12-19T15:27:58;4.80;;;3.33;;
13959;SDS011;7052;51.050;3.716;2022-12-19T15:30:25;4.03;;;3.13;;
13959;SDS011;7052;51.050;3.716;2022-12-19T15:33:02;4.67;;;3.10;;
13959;SDS011;7052;51.050;3.716;2022-12-19T15:35:30;6.40;;;3.30;;
13959;SDS011;7052;51.050;3.716;2022-12-19T15:37:57;4.07;;;2.90;;
13959;SDS011;7052;51.050;3.716;2022-12-19T15:40:25;3.43;;;3.13;;
13959;SDS011;7052;51.050;3.716;2022-12-19T15:42:53;3.67;;;3.13;;
13959;SDS011;7052;51.050;3.716;2022-12-19T15:45:23;3.57;;;3.17;;
13959;SDS011;7052;51.050;3.716;2022-12-19T15:47:51;4.10;;;3.40;;